createdAt,value
2024-01-24T00:01:11.057Z,100.00
2024-01-24T00:03:37.543Z,100.00
2024-01-24T00:06:03.780Z,100.00
2024-01-24T00:08:30.261Z,100.00
2024-01-24T00:10:56.606Z,100.00
2024-01-24T00:13:23.131Z,100.00
2024-01-24T00:15:49.650Z,100.00
2024-01-24T00:18:16.241Z,100.00
2024-01-24T00:20:42.504Z,100.00
2024-01-24T00:23:08.951Z,100.00
2024-01-24T00:25:35.494Z,100.00
2024-01-24T00:28:01.885Z,100.00
2024-01-24T00:30:28.265Z,100.00
2024-01-24T00:32:54.832Z,100.00
2024-01-24T00:35:21.230Z,100.00
2024-01-24T00:37:47.627Z,100.00
2024-01-24T00:40:14.080Z,100.00
2024-01-24T00:42:40.579Z,100.00
2024-01-24T00:45:06.967Z,100.00
2024-01-24T00:47:33.439Z,100.00
2024-01-24T00:49:59.815Z,100.00
2024-01-24T00:52:26.268Z,100.00
2024-01-24T00:54:52.814Z,100.00
2024-01-24T00:57:19.253Z,100.00
2024-01-24T00:59:45.648Z,100.00
2024-01-24T01:02:12.058Z,100.00
2024-01-24T01:04:38.407Z,100.00
2024-01-24T01:07:04.894Z,100.00
2024-01-24T01:09:31.353Z,100.00
2024-01-24T01:11:57.715Z,100.00
2024-01-24T01:14:24.062Z,100.00
2024-01-24T01:16:50.470Z,100.00
2024-01-24T01:19:16.923Z,100.00
2024-01-24T01:21:43.448Z,100.00
2024-01-24T01:24:09.882Z,100.00
2024-01-24T01:26:36.210Z,100.00
2024-01-24T01:29:02.566Z,100.00
2024-01-24T01:31:29.078Z,100.00
2024-01-24T01:33:55.492Z,100.00
2024-01-24T01:36:23.629Z,100.00
2024-01-24T01:38:48.386Z,100.00
2024-01-24T01:41:14.812Z,100.00
2024-01-24T01:43:41.214Z,100.00
2024-01-24T01:46:07.664Z,100.00
2024-01-24T01:48:34.138Z,100.00
2024-01-24T01:51:00.447Z,100.00
2024-01-24T01:53:26.856Z,100.00
2024-01-24T01:55:53.331Z,100.00
2024-01-24T01:58:19.725Z,100.00
2024-01-24T02:00:46.173Z,100.00
2024-01-24T02:03:12.689Z,100.00
2024-01-24T02:05:39.439Z,100.00
2024-01-24T02:08:05.486Z,100.00
2024-01-24T02:10:32.023Z,100.00
2024-01-24T02:12:58.479Z,100.00
2024-01-24T02:15:24.896Z,100.00
2024-01-24T02:17:51.288Z,100.00
2024-01-24T02:20:17.740Z,100.00
2024-01-24T02:22:44.111Z,100.00
2024-01-24T02:25:10.814Z,100.00
2024-01-24T02:27:37.244Z,100.00
2024-01-24T02:30:03.691Z,100.00
2024-01-24T02:32:30.141Z,100.00
2024-01-24T02:34:56.577Z,100.00
2024-01-24T02:37:23.082Z,100.00
2024-01-24T02:39:49.643Z,100.00
2024-01-24T02:42:15.991Z,100.00
2024-01-24T02:44:42.344Z,100.00
2024-01-24T02:47:08.708Z,100.00
2024-01-24T02:49:35.305Z,100.00
2024-01-24T02:52:01.566Z,100.00
2024-01-24T02:54:28.062Z,100.00
2024-01-24T02:56:54.451Z,100.00
2024-01-24T02:59:20.856Z,100.00
2024-01-24T03:01:47.322Z,100.00
2024-01-24T03:04:13.968Z,100.00
2024-01-24T03:06:40.311Z,100.00
2024-01-24T03:09:06.711Z,100.00
2024-01-24T03:11:33.144Z,100.00
2024-01-24T03:13:59.690Z,100.00
2024-01-24T03:16:26.039Z,100.00
2024-01-24T03:18:52.871Z,100.00
2024-01-24T03:21:19.222Z,100.00
2024-01-24T03:23:45.489Z,100.00
2024-01-24T03:26:11.961Z,100.00
2024-01-24T03:28:38.396Z,100.00
2024-01-24T03:31:04.752Z,100.00
2024-01-24T03:33:31.348Z,100.00
2024-01-24T03:35:57.602Z,100.00
2024-01-24T03:38:24.084Z,100.00
2024-01-24T03:40:50.399Z,100.00
2024-01-24T03:43:16.902Z,100.00
2024-01-24T03:45:43.386Z,100.00
2024-01-24T03:48:09.800Z,100.00
2024-01-24T03:50:36.104Z,100.00
2024-01-24T03:53:02.504Z,100.00
2024-01-24T03:55:28.895Z,100.00
2024-01-24T03:57:55.418Z,100.00
2024-01-24T04:00:21.815Z,100.00
2024-01-24T04:02:48.239Z,100.00
2024-01-24T04:05:14.689Z,100.00
2024-01-24T04:07:41.103Z,100.00
2024-01-24T04:10:07.540Z,100.00
2024-01-24T04:12:34.111Z,100.00
2024-01-24T04:15:00.585Z,100.00
2024-01-24T04:17:27.090Z,100.00
2024-01-24T04:19:53.434Z,100.00
2024-01-24T04:22:19.843Z,100.00
2024-01-24T04:24:46.288Z,100.00
2024-01-24T04:27:12.904Z,100.00
2024-01-24T04:29:39.280Z,100.00
2024-01-24T04:32:05.740Z,100.00
2024-01-24T04:34:32.339Z,100.00
2024-01-24T04:36:58.634Z,100.00
2024-01-24T04:39:24.994Z,100.00
2024-01-24T04:41:56.242Z,100.00
2024-01-24T04:44:17.840Z,100.00
2024-01-24T04:46:44.361Z,100.00
2024-01-24T04:49:22.952Z,100.00
2024-01-24T04:51:37.263Z,100.00
2024-01-24T04:54:03.646Z,100.00
2024-01-24T04:56:30.074Z,100.00
2024-01-24T04:58:56.429Z,100.00
2024-01-24T05:01:23.071Z,100.00
2024-01-24T05:03:49.489Z,100.00
2024-01-24T05:06:15.901Z,100.00
2024-01-24T05:08:42.355Z,100.00
2024-01-24T05:11:08.805Z,100.00
2024-01-24T05:13:35.138Z,100.00
2024-01-24T05:16:01.657Z,100.00
2024-01-24T05:18:28.132Z,100.00
2024-01-24T05:20:54.431Z,100.00
2024-01-24T05:23:20.799Z,100.00
2024-01-24T05:25:47.264Z,100.00
2024-01-24T05:28:13.645Z,100.00
2024-01-24T05:30:40.330Z,100.00
2024-01-24T05:33:06.612Z,100.00
2024-01-24T05:35:33.017Z,100.00
2024-01-24T05:37:59.360Z,100.00
2024-01-24T05:40:25.819Z,100.00
2024-01-24T05:42:53.596Z,100.00
2024-01-24T05:45:18.696Z,100.00
2024-01-24T05:47:45.121Z,100.00
2024-01-24T05:50:11.503Z,100.00
2024-01-24T05:52:39.693Z,100.00
2024-01-24T05:55:04.403Z,100.00
2024-01-24T05:57:30.714Z,100.00
2024-01-24T05:59:57.281Z,100.00
2024-01-24T06:02:23.629Z,100.00
2024-01-24T06:04:50.377Z,100.00
2024-01-24T06:07:16.864Z,100.00
2024-01-24T06:09:43.251Z,100.00
2024-01-24T06:12:09.538Z,100.00
2024-01-24T06:14:35.980Z,100.00
2024-01-24T06:17:02.387Z,100.00
2024-01-24T06:19:28.851Z,100.00
2024-01-24T06:21:55.290Z,100.00
2024-01-24T06:24:23.282Z,100.00
2024-01-24T06:26:48.020Z,100.00
2024-01-24T06:29:14.429Z,100.00
2024-01-24T06:31:40.845Z,100.00
2024-01-24T06:34:07.436Z,100.00
2024-01-24T06:36:33.664Z,100.00
2024-01-24T06:39:00.182Z,100.00
2024-01-24T06:41:26.532Z,100.00
2024-01-24T06:43:52.933Z,100.00
2024-01-24T06:46:19.372Z,100.00
2024-01-24T06:48:46.027Z,100.00
2024-01-24T06:51:12.276Z,100.00
2024-01-24T06:53:38.800Z,100.00
2024-01-24T06:56:05.199Z,100.00
2024-01-24T06:58:31.724Z,100.00
2024-01-24T07:00:58.216Z,100.00
2024-01-24T07:03:24.698Z,100.00
2024-01-24T07:05:50.973Z,100.00
2024-01-24T07:08:17.396Z,100.00
2024-01-24T07:10:43.836Z,100.00
2024-01-24T07:13:10.286Z,100.00
2024-01-24T07:15:36.682Z,100.00
2024-01-24T07:18:03.210Z,100.00
2024-01-24T07:20:29.463Z,100.00
2024-01-24T07:22:55.909Z,100.00
2024-01-24T07:25:22.341Z,100.00
2024-01-24T07:27:48.860Z,100.00
2024-01-24T07:30:15.155Z,100.00
2024-01-24T07:32:41.624Z,100.00
2024-01-24T07:35:08.080Z,100.00
2024-01-24T07:37:34.476Z,100.00
2024-01-24T07:40:01.067Z,100.00
2024-01-24T07:42:27.341Z,100.00
2024-01-24T07:44:53.682Z,100.00
2024-01-24T07:47:20.230Z,100.00
2024-01-24T07:49:46.675Z,100.00
2024-01-24T07:52:13.291Z,100.00
2024-01-24T07:54:39.536Z,100.00
2024-01-24T07:57:05.950Z,100.00
2024-01-24T07:59:32.342Z,100.00
2024-01-24T08:01:58.941Z,100.00
2024-01-24T08:04:25.448Z,100.00
2024-01-24T08:06:52.021Z,100.00
2024-01-24T08:09:18.358Z,100.00
2024-01-24T08:11:44.767Z,100.00
2024-01-24T08:14:11.114Z,100.00
2024-01-24T08:16:37.619Z,100.00
2024-01-24T08:19:04.150Z,100.00
2024-01-24T08:21:30.501Z,100.00
2024-01-24T08:23:56.850Z,100.00
2024-01-24T08:26:23.346Z,100.00
2024-01-24T08:28:49.728Z,100.00
2024-01-24T08:31:16.202Z,100.00
2024-01-24T08:33:42.822Z,100.00
2024-01-24T08:36:09.065Z,99.30
2024-01-24T08:38:35.466Z,98.42
2024-01-24T08:41:01.951Z,97.55
2024-01-24T08:43:28.325Z,96.87
2024-01-24T08:45:54.884Z,95.93
2024-01-24T08:48:21.254Z,95.18
2024-01-24T08:50:47.692Z,94.85
2024-01-24T08:53:14.099Z,94.11
2024-01-24T08:55:40.516Z,93.48
2024-01-24T08:58:07.037Z,93.26
2024-01-24T09:00:33.431Z,92.78
2024-01-24T09:02:59.840Z,92.17
2024-01-24T09:05:26.852Z,91.72
2024-01-24T09:07:53.184Z,90.82
2024-01-24T09:10:19.641Z,90.35
2024-01-24T09:12:46.039Z,90.03
2024-01-24T09:15:12.393Z,89.69
2024-01-24T09:17:38.902Z,89.49
2024-01-24T09:20:05.371Z,88.59
2024-01-24T09:22:31.673Z,88.22
2024-01-24T09:24:58.216Z,87.58
2024-01-24T09:27:24.520Z,86.87
2024-01-24T09:29:50.883Z,85.80
2024-01-24T09:32:17.324Z,85.30
2024-01-24T09:34:44.090Z,84.26
2024-01-24T09:37:10.177Z,83.21
2024-01-24T09:39:36.658Z,82.05
2024-01-24T09:42:03.046Z,81.51
2024-01-24T09:44:29.497Z,80.82
2024-01-24T09:46:55.853Z,80.18
2024-01-24T09:49:22.410Z,79.52
2024-01-24T09:51:48.661Z,78.93
2024-01-24T09:54:15.175Z,78.35
2024-01-24T09:56:41.614Z,77.61
2024-01-24T09:59:07.912Z,76.80
2024-01-24T10:01:34.477Z,76.14
2024-01-24T10:04:00.929Z,75.65
2024-01-24T10:06:27.449Z,75.10
2024-01-24T10:08:54.022Z,74.39
2024-01-24T10:11:20.568Z,73.86
2024-01-24T10:13:46.925Z,73.40
2024-01-24T10:16:13.484Z,72.87
2024-01-24T10:18:39.805Z,72.31
2024-01-24T10:21:06.777Z,71.85
2024-01-24T10:23:32.930Z,71.30
2024-01-24T10:25:59.351Z,70.89
2024-01-24T10:28:25.859Z,70.45
2024-01-24T10:30:52.690Z,70.16
2024-01-24T10:33:19.658Z,69.84
2024-01-24T10:35:45.513Z,69.36
2024-01-24T10:38:11.967Z,69.08
2024-01-24T10:40:38.490Z,68.63
2024-01-24T10:43:04.992Z,68.55
2024-01-24T10:45:31.363Z,68.34
2024-01-24T10:47:57.775Z,67.90
2024-01-24T10:50:24.419Z,67.71
2024-01-24T10:52:53.182Z,67.86
2024-01-24T10:55:17.307Z,67.71
2024-01-24T10:57:44.231Z,67.28
2024-01-24T11:00:10.251Z,66.83
2024-01-24T11:02:36.645Z,66.55
2024-01-24T11:05:03.087Z,66.11
2024-01-24T11:07:29.406Z,66.10
2024-01-24T11:09:55.985Z,65.68
2024-01-24T11:12:22.324Z,65.24
2024-01-24T11:14:48.739Z,65.13
2024-01-24T11:17:15.177Z,64.80
2024-01-24T11:19:41.860Z,64.61
2024-01-24T11:22:13.608Z,64.24
2024-01-24T11:24:34.608Z,64.04
2024-01-24T11:27:01.119Z,63.96
2024-01-24T11:29:27.660Z,63.82
2024-01-24T11:31:54.104Z,63.71
2024-01-24T11:34:20.706Z,63.63
2024-01-24T11:36:46.897Z,63.62
2024-01-24T11:39:13.394Z,63.57
2024-01-24T11:41:39.837Z,63.55
2024-01-24T11:44:06.257Z,63.45
2024-01-24T11:46:32.691Z,63.24
2024-01-24T11:48:59.282Z,63.17
2024-01-24T11:51:25.685Z,63.22
2024-01-24T11:53:52.079Z,63.02
2024-01-24T11:56:18.563Z,62.94
2024-01-24T11:58:44.985Z,62.94
2024-01-24T12:01:11.521Z,62.79
2024-01-24T12:03:37.831Z,62.77
2024-01-24T12:06:04.268Z,62.72
2024-01-24T12:08:30.685Z,62.46
2024-01-24T12:10:58.157Z,62.58
2024-01-24T12:13:24.732Z,62.43
2024-01-24T12:15:51.229Z,62.38
2024-01-24T12:18:17.938Z,62.32
2024-01-24T12:20:46.361Z,62.19
2024-01-24T12:23:12.885Z,62.08
2024-01-24T12:25:41.729Z,61.99
2024-01-24T12:28:08.226Z,61.89
2024-01-24T12:30:34.844Z,61.84
2024-01-24T12:33:01.210Z,61.78
2024-01-24T12:35:27.686Z,61.65
2024-01-24T12:37:54.085Z,61.58
2024-01-24T12:40:20.619Z,61.48
2024-01-24T12:42:47.130Z,61.34
2024-01-24T12:45:13.693Z,61.18
2024-01-24T12:47:40.135Z,61.20
2024-01-24T12:50:06.607Z,60.93
2024-01-24T12:52:32.881Z,60.79
2024-01-24T12:54:59.381Z,60.91
2024-01-24T12:57:25.715Z,60.94
2024-01-24T12:59:52.044Z,60.84
2024-01-24T13:02:18.581Z,61.17
2024-01-24T13:04:45.185Z,61.13
2024-01-24T13:07:11.574Z,60.93
2024-01-24T13:09:42.842Z,61.01
2024-01-24T13:12:04.467Z,60.88
2024-01-24T13:14:30.917Z,60.83
2024-01-24T13:16:57.333Z,60.99
2024-01-24T13:19:23.870Z,61.08
2024-01-24T13:21:50.272Z,61.06
2024-01-24T13:24:16.597Z,61.11
2024-01-24T13:26:43.626Z,61.07
2024-01-24T13:29:09.463Z,61.08
2024-01-24T13:31:36.067Z,61.18
2024-01-24T13:34:02.482Z,61.42
2024-01-24T13:36:28.989Z,61.43
2024-01-24T13:38:55.361Z,61.63
2024-01-24T13:41:21.887Z,61.75
2024-01-24T13:43:48.168Z,61.74
2024-01-24T13:46:14.769Z,61.86
2024-01-24T13:48:41.146Z,61.98
2024-01-24T13:51:07.544Z,62.29
2024-01-24T13:53:33.890Z,62.41
2024-01-24T13:56:00.403Z,62.36
2024-01-24T13:58:27.011Z,62.27
2024-01-24T14:00:53.352Z,62.43
2024-01-24T14:03:19.716Z,62.70
2024-01-24T14:05:46.152Z,62.78
2024-01-24T14:08:12.553Z,62.93
2024-01-24T14:10:41.045Z,63.27
2024-01-24T14:13:07.538Z,63.53
2024-01-24T14:15:36.568Z,63.55
2024-01-24T14:18:00.408Z,63.65
2024-01-24T14:20:26.765Z,63.94
2024-01-24T14:22:53.131Z,64.22
2024-01-24T14:25:19.525Z,64.54
2024-01-24T14:27:45.957Z,64.76
2024-01-24T14:30:12.404Z,64.91
2024-01-24T14:32:38.798Z,65.15
2024-01-24T14:35:05.280Z,65.37
2024-01-24T14:37:33.373Z,65.54
2024-01-24T14:39:58.066Z,65.81
2024-01-24T14:42:24.476Z,65.80
2024-01-24T14:44:51.038Z,66.02
2024-01-24T14:47:17.370Z,66.15
2024-01-24T14:49:43.958Z,66.17
2024-01-24T14:52:10.346Z,66.31
2024-01-24T14:54:36.767Z,66.24
2024-01-24T14:57:03.343Z,66.50
2024-01-24T14:59:29.811Z,66.62
2024-01-24T15:01:56.263Z,66.66
2024-01-24T15:04:22.875Z,66.80
2024-01-24T15:06:49.233Z,67.05
2024-01-24T15:09:15.632Z,66.91
2024-01-24T15:11:41.988Z,66.98
2024-01-24T15:14:08.540Z,67.11
2024-01-24T15:16:34.970Z,67.10
2024-01-24T15:19:01.482Z,67.26
2024-01-24T15:21:31.860Z,67.15
2024-01-24T15:23:54.239Z,67.53
2024-01-24T15:26:20.597Z,67.58
2024-01-24T15:28:47.114Z,67.70
2024-01-24T15:31:13.582Z,67.95
2024-01-24T15:33:40.060Z,67.92
2024-01-24T15:36:06.412Z,68.35
2024-01-24T15:38:32.954Z,68.43
2024-01-24T15:40:59.292Z,68.60
2024-01-24T15:43:27.073Z,68.70
2024-01-24T15:45:53.488Z,68.97
2024-01-24T15:48:19.968Z,68.98
2024-01-24T15:50:46.708Z,69.33
2024-01-24T15:53:13.163Z,69.50
2024-01-24T15:55:39.528Z,69.66
2024-01-24T15:58:06.136Z,69.77
2024-01-24T16:00:32.481Z,69.73
2024-01-24T16:02:59.059Z,70.03
2024-01-24T16:05:25.450Z,70.14
2024-01-24T16:07:51.911Z,70.20
2024-01-24T16:10:20.626Z,70.27
2024-01-24T16:12:47.136Z,70.12
2024-01-24T16:15:13.447Z,70.42
2024-01-24T16:17:40.012Z,68.48
2024-01-24T16:20:06.481Z,69.03
2024-01-24T16:22:36.434Z,70.22
2024-01-24T16:24:59.348Z,71.39
2024-01-24T16:27:25.878Z,71.79
2024-01-24T16:29:52.676Z,72.05
2024-01-24T16:32:19.228Z,72.50
2024-01-24T16:34:46.516Z,72.62
2024-01-24T16:37:12.865Z,72.98
2024-01-24T16:39:39.287Z,73.20
2024-01-24T16:42:05.740Z,73.47
2024-01-24T16:44:32.143Z,73.77
2024-01-24T16:46:58.724Z,74.04
2024-01-24T16:49:25.198Z,74.37
2024-01-24T16:51:51.579Z,74.57
2024-01-24T16:54:17.948Z,74.82
2024-01-24T16:56:44.422Z,75.29
2024-01-24T16:59:10.783Z,75.61
2024-01-24T17:01:37.501Z,75.77
2024-01-24T17:04:03.749Z,76.24
2024-01-24T17:06:30.145Z,76.38
2024-01-24T17:08:56.593Z,76.60
2024-01-24T17:11:23.036Z,76.85
2024-01-24T17:13:49.380Z,77.22
2024-01-24T17:16:15.815Z,77.47
2024-01-24T17:18:42.286Z,77.58
2024-01-24T17:21:08.683Z,77.83
2024-01-24T17:23:35.198Z,77.90
2024-01-24T17:26:01.637Z,78.21
2024-01-24T17:28:27.980Z,78.09
2024-01-24T17:30:54.779Z,78.30
2024-01-24T17:33:21.318Z,78.33
2024-01-24T17:35:47.681Z,78.77
2024-01-24T17:38:14.040Z,78.76
2024-01-24T17:40:40.539Z,78.81
2024-01-24T17:43:07.341Z,78.85
2024-01-24T17:45:33.755Z,79.08
2024-01-24T17:48:00.187Z,79.35
2024-01-24T17:50:26.575Z,79.58
2024-01-24T17:52:52.924Z,79.51
2024-01-24T17:55:19.456Z,79.67
2024-01-24T17:57:45.841Z,79.83
2024-01-24T18:00:12.315Z,80.23
2024-01-24T18:02:38.649Z,80.46
2024-01-24T18:05:05.138Z,80.60
2024-01-24T18:07:31.829Z,80.65
2024-01-24T18:09:58.091Z,80.97
2024-01-24T18:12:24.480Z,81.17
2024-01-24T18:14:50.913Z,81.35
2024-01-24T18:17:17.331Z,81.55
2024-01-24T18:19:43.930Z,81.96
2024-01-24T18:22:10.215Z,82.23
2024-01-24T18:24:36.652Z,82.52
2024-01-24T18:27:03.015Z,82.72
2024-01-24T18:29:29.403Z,82.99
2024-01-24T18:31:55.743Z,83.29
2024-01-24T18:34:22.230Z,83.74
2024-01-24T18:36:48.512Z,83.84
2024-01-24T18:39:14.919Z,84.56
2024-01-24T18:41:41.353Z,84.83
2024-01-24T18:44:07.806Z,85.28
2024-01-24T18:46:34.217Z,85.39
2024-01-24T18:49:04.321Z,85.75
2024-01-24T18:51:27.181Z,86.34
2024-01-24T18:53:53.617Z,86.58
2024-01-24T18:56:20.068Z,86.93
2024-01-24T18:58:46.887Z,87.11
2024-01-24T19:01:13.340Z,87.35
2024-01-24T19:03:39.864Z,87.82
2024-01-24T19:06:06.228Z,88.09
2024-01-24T19:08:32.633Z,88.41
2024-01-24T19:10:59.035Z,88.58
2024-01-24T19:13:25.600Z,88.72
2024-01-24T19:15:51.972Z,89.03
2024-01-24T19:18:24.838Z,89.01
2024-01-24T19:20:48.034Z,89.15
2024-01-24T19:23:14.518Z,89.12
2024-01-24T19:25:40.948Z,89.18
2024-01-24T19:28:07.485Z,89.29
2024-01-24T19:30:33.754Z,89.28
2024-01-24T19:33:00.317Z,89.04
2024-01-24T19:35:26.709Z,89.10
2024-01-24T19:37:53.137Z,89.03
2024-01-24T19:40:19.545Z,89.07
2024-01-24T19:42:45.980Z,88.84
2024-01-24T19:45:12.317Z,88.79
2024-01-24T19:47:38.733Z,88.77
2024-01-24T19:50:06.005Z,88.56
2024-01-24T19:52:32.525Z,88.56
2024-01-24T19:54:58.919Z,88.46
2024-01-24T19:57:25.417Z,88.49
2024-01-24T19:59:51.828Z,88.30
2024-01-24T20:02:18.305Z,88.26
2024-01-24T20:04:44.677Z,88.15
2024-01-24T20:07:11.250Z,87.98
2024-01-24T20:09:37.657Z,88.20
2024-01-24T20:12:04.117Z,88.29
2024-01-24T20:14:30.531Z,88.42
2024-01-24T20:16:56.983Z,88.55
2024-01-24T20:19:25.621Z,88.60
2024-01-24T20:21:52.141Z,88.70
2024-01-24T20:24:18.511Z,88.90
2024-01-24T20:26:44.916Z,88.97
2024-01-24T20:29:11.394Z,88.94
2024-01-24T20:31:37.751Z,89.04
2024-01-24T20:34:04.262Z,89.08
2024-01-24T20:36:30.602Z,89.23
2024-01-24T20:38:57.053Z,89.31
2024-01-24T20:41:24.872Z,89.53
2024-01-24T20:43:49.887Z,89.69
2024-01-24T20:46:16.457Z,89.89
2024-01-24T20:48:43.039Z,89.97
2024-01-24T20:51:09.219Z,90.06
2024-01-24T20:53:35.731Z,90.14
2024-01-24T20:56:02.088Z,90.25
2024-01-24T20:58:28.531Z,90.41
2024-01-24T21:00:55.185Z,90.71
2024-01-24T21:03:21.340Z,90.73
2024-01-24T21:05:47.718Z,90.85
2024-01-24T21:08:14.189Z,91.10
2024-01-24T21:10:45.611Z,91.16
2024-01-24T21:13:07.137Z,91.28
2024-01-24T21:15:33.493Z,91.37
2024-01-24T21:18:00.024Z,91.37
2024-01-24T21:20:26.499Z,91.72
2024-01-24T21:22:53.355Z,91.99
2024-01-24T21:25:19.709Z,92.20
2024-01-24T21:27:46.096Z,92.33
2024-01-24T21:30:12.481Z,92.50
2024-01-24T21:32:39.084Z,92.67
2024-01-24T21:35:05.485Z,92.86
2024-01-24T21:37:32.128Z,93.25
2024-01-24T21:39:58.438Z,93.44
2024-01-24T21:42:24.886Z,93.82
2024-01-24T21:44:51.235Z,93.98
2024-01-24T21:47:17.752Z,94.14
2024-01-24T21:49:44.390Z,94.37
2024-01-24T21:52:10.642Z,94.65
2024-01-24T21:54:36.986Z,95.01
2024-01-24T21:57:03.390Z,95.20
2024-01-24T21:59:29.808Z,95.40
2024-01-24T22:01:56.217Z,95.43
2024-01-24T22:04:22.646Z,95.47
2024-01-24T22:06:49.037Z,95.49
2024-01-24T22:09:15.441Z,95.68
2024-01-24T22:11:41.890Z,95.56
2024-01-24T22:14:08.238Z,95.42
2024-01-24T22:16:34.730Z,95.45
2024-01-24T22:19:01.205Z,95.35
2024-01-24T22:21:27.592Z,95.52
2024-01-24T22:23:53.954Z,95.36
2024-01-24T22:26:20.475Z,95.32
2024-01-24T22:28:46.822Z,95.34
2024-01-24T22:31:13.387Z,95.32
2024-01-24T22:33:39.816Z,95.40
2024-01-24T22:36:06.205Z,95.54
2024-01-24T22:38:32.580Z,95.53
2024-01-24T22:40:59.091Z,95.63
2024-01-24T22:43:25.475Z,95.73
2024-01-24T22:45:51.936Z,95.72
2024-01-24T22:48:18.380Z,96.05
2024-01-24T22:50:44.722Z,96.28
2024-01-24T22:53:11.061Z,96.40
2024-01-24T22:55:37.556Z,96.56
2024-01-24T22:58:04.085Z,96.83
2024-01-24T23:00:30.463Z,97.01
2024-01-24T23:02:56.784Z,97.17
2024-01-24T23:05:23.289Z,97.34
2024-01-24T23:07:49.604Z,97.70
2024-01-24T23:10:16.131Z,98.04
2024-01-24T23:12:42.519Z,98.17
2024-01-24T23:15:08.854Z,98.53
2024-01-24T23:17:35.377Z,98.84
2024-01-24T23:20:01.832Z,99.06
2024-01-24T23:22:28.099Z,99.32
2024-01-24T23:24:54.671Z,99.50
2024-01-24T23:27:20.953Z,99.58
2024-01-24T23:29:47.381Z,99.69
2024-01-24T23:32:13.875Z,99.81
2024-01-24T23:34:40.407Z,100.00
2024-01-24T23:37:06.838Z,100.00
2024-01-24T23:39:33.112Z,100.00
2024-01-24T23:41:59.458Z,100.00
2024-01-24T23:44:25.893Z,100.00
2024-01-24T23:46:52.235Z,100.00
2024-01-24T23:49:18.872Z,100.00
2024-01-24T23:51:45.256Z,100.00
2024-01-24T23:54:11.549Z,100.00
2024-01-24T23:56:37.903Z,100.00
2024-01-24T23:59:04.432Z,100.00
